Pagrindinis puslapis
METAR-TAF:

METAR-TAF

Oro uostai :

Kajena, Prancūzijos Gviana

platuma: 04-50N, ilguma: 052-22W, Aukštis: 105 m

Dabartinis oras

Ataskaita buvo paskelbta 17 minutes, ne 22:30 UTC
Vėjas 7 kt iš Rytų
Temperatūra 28°C
Drėgmė 79%
Slėgis 1008 hPa
Matomumas 10 km arba daugiau

METAR: SOCA 182230Z AUTO 09007KT 9999 NCD 28/24 Q1008 NOSIG

Laikas: 19:47 (22:47 UTC)

Prognozė

Ataskaita buvo paskelbta 6 valandos ir 47 minutes, ne 16:00 UTC
Prognozė galioja nuo 18 metu 18 UTC su 19 metu 18 UTC
Vėjas 10 kt iš Rytų
Matomumas 10 km arba daugiau
Išsisklaidę debesys ne aukštis 4000 ft
Nuo 18 metu 2300 UTC
Vėjas 2 kt nuo kintamojo kryptimis
Matomumas 10 km arba daugiau
nėra debesų žemiau 1500 m ir nėra kamuolinių lietaus debesų
Tapsmas
nuo 19 metu 12 UTC su 19 metu 14 UTC
Vėjas 10 kt iš Rytų
Matomumas 10 km arba daugiau
Išsisklaidę debesys ne aukštis 3300 ft

TAF: SOCA 181600Z 1818/1918 08010KT 9999 SCT040 FM182300 VRB02KT CAVOK BECMG 1912/1914 09010KT 9999 SCT033

Orai ataskaitas ir orų prognozės (METAR, TAF).

turimą stotys yra geltonos ir raudonos taškus žemėlapyje.

Perkelti pele per norėdami pamatyti stoties vardą.

Tada spustelėkite, norėdami matyti oro stebėjimo ir prognozės.

Norėdami pakeisti žemėlapį: spustelėkite ant žalios mygtukų su juodo kryžiaus žemyn,; žalią mygtuką su brūkšneliu, jei norite nutolinti; arba žalių rodyklių gretimoms žemėlapius.


METAR-TAF: